createdAt,value
2022-10-11T00:00:16.201Z,372
2022-10-11T00:01:16.331Z,371
2022-10-11T00:02:16.061Z,366
2022-10-11T00:03:16.127Z,371
2022-10-11T00:04:14.840Z,369
2022-10-11T00:07:15.955Z,373
2022-10-11T00:08:16.548Z,369
2022-10-11T00:09:15.220Z,366
2022-10-11T00:10:15.818Z,377
2022-10-11T00:11:16.525Z,372
2022-10-11T00:13:16.735Z,370
2022-10-11T00:14:15.186Z,386
2022-10-11T00:15:16.189Z,379
2022-10-11T00:16:16.765Z,370
2022-10-11T00:18:16.034Z,377
2022-10-11T00:19:15.866Z,379
2022-10-11T00:20:16.571Z,368
2022-10-11T00:21:15.940Z,357
2022-10-11T00:22:16.717Z,369
2022-10-11T00:23:16.309Z,384
2022-10-11T00:24:14.908Z,383
2022-10-11T00:25:16.723Z,378
2022-10-11T00:26:15.931Z,388
2022-10-11T00:27:16.527Z,376
2022-10-11T00:28:16.719Z,368
2022-10-11T00:29:15.344Z,372
2022-10-11T00:30:15.899Z,382
2022-10-11T00:31:16.568Z,384
2022-10-11T00:32:16.361Z,375
2022-10-11T00:33:15.890Z,372
2022-10-11T00:34:15.692Z,370
2022-10-11T00:35:16.112Z,380
2022-10-11T00:36:15.773Z,377
2022-10-11T00:37:16.714Z,378
2022-10-11T00:38:16.232Z,382
2022-10-11T00:40:16.451Z,385
2022-10-11T00:41:16.048Z,379
2022-10-11T00:42:15.564Z,374
2022-10-11T00:43:16.418Z,380
2022-10-11T00:44:15.205Z,379
2022-10-11T00:45:17.039Z,382
2022-10-11T00:46:16.667Z,374
2022-10-11T00:47:16.216Z,382
2022-10-11T00:48:16.749Z,381
2022-10-11T00:49:15.406Z,382
2022-10-11T00:50:16.168Z,376
2022-10-11T00:51:16.841Z,371
2022-10-11T00:52:16.405Z,381
2022-10-11T00:53:15.789Z,375
2022-10-11T00:54:15.838Z,370
2022-10-11T00:55:16.483Z,372
2022-10-11T00:56:16.120Z,373
2022-10-11T00:57:17.010Z,377
2022-10-11T00:58:16.311Z,378
2022-10-11T00:59:14.869Z,380
2022-10-11T01:00:16.708Z,396
2022-10-11T01:01:16.345Z,374
2022-10-11T01:02:16.189Z,365
2022-10-11T01:03:16.639Z,372
2022-10-11T01:04:15.204Z,377
2022-10-11T01:05:33.271Z,385
2022-10-11T01:06:16.380Z,383
2022-10-11T01:07:16.183Z,396
2022-10-11T01:08:15.847Z,390
2022-10-11T01:09:15.311Z,378
2022-10-11T01:10:15.972Z,370
2022-10-11T01:11:16.494Z,379
2022-10-11T01:12:16.383Z,376
2022-10-11T01:13:16.021Z,378
2022-10-11T01:14:15.633Z,379
2022-10-11T01:15:16.365Z,376
2022-10-11T01:16:16.064Z,373
2022-10-11T01:17:16.616Z,379
2022-10-11T01:18:16.451Z,377
2022-10-11T01:19:15.968Z,373
2022-10-11T01:20:16.372Z,371
2022-10-11T01:21:16.467Z,380
2022-10-11T01:22:15.692Z,371
2022-10-11T01:23:17.249Z,362
2022-10-11T01:24:15.170Z,368
2022-10-11T01:25:16.494Z,367
2022-10-11T01:26:16.110Z,378
2022-10-11T01:27:16.792Z,390
2022-10-11T01:28:16.907Z,393
2022-10-11T01:29:15.346Z,387
2022-10-11T01:30:15.710Z,380
2022-10-11T01:31:16.523Z,372
2022-10-11T01:32:16.406Z,385
2022-10-11T01:33:16.867Z,383
2022-10-11T01:34:15.448Z,385
2022-10-11T01:35:16.009Z,384
2022-10-11T01:36:16.799Z,378
2022-10-11T01:37:16.136Z,380
2022-10-11T01:38:16.889Z,385
2022-10-11T01:39:15.671Z,380
2022-10-11T01:40:15.997Z,381
2022-10-11T01:41:16.598Z,391
2022-10-11T01:42:16.545Z,385
2022-10-11T01:43:16.135Z,371
2022-10-11T01:44:15.770Z,380
2022-10-11T01:45:16.399Z,385
2022-10-11T01:46:16.180Z,388
2022-10-11T01:48:16.292Z,383
2022-10-11T01:49:15.098Z,375
2022-10-11T01:50:16.659Z,378
2022-10-11T01:51:16.400Z,382
2022-10-11T01:52:16.232Z,388
2022-10-11T01:53:16.691Z,382
2022-10-11T01:54:15.378Z,380
2022-10-11T01:56:16.793Z,382
2022-10-11T01:57:16.151Z,381
2022-10-11T01:58:15.725Z,382
2022-10-11T02:00:16.176Z,374
2022-10-11T02:02:16.444Z,370
2022-10-11T02:03:16.132Z,405
2022-10-11T02:04:14.850Z,393
2022-10-11T02:05:16.649Z,378
2022-10-11T02:06:16.360Z,390
2022-10-11T02:08:16.513Z,382
2022-10-11T02:09:15.270Z,367
2022-10-11T02:10:16.902Z,372
2022-10-11T02:11:16.440Z,374
2022-10-11T02:12:16.321Z,376
2022-10-11T02:14:17.292Z,379
2022-10-11T02:15:15.883Z,373
2022-10-11T02:16:16.038Z,375
2022-10-11T02:17:16.222Z,378
2022-10-11T02:18:16.992Z,381
2022-10-11T02:19:15.902Z,383
2022-10-11T02:20:16.071Z,378
2022-10-11T02:21:16.773Z,372
2022-10-11T02:22:16.624Z,379
2022-10-11T02:23:16.033Z,376
2022-10-11T02:24:15.673Z,379
2022-10-11T02:25:16.272Z,386
2022-10-11T02:26:15.940Z,387
2022-10-11T02:27:16.614Z,400
2022-10-11T02:28:15.984Z,401
2022-10-11T02:29:15.830Z,395
2022-10-11T02:30:15.939Z,383
2022-10-11T02:31:15.916Z,379
2022-10-11T02:32:16.997Z,373
2022-10-11T02:33:16.631Z,371
2022-10-11T02:34:15.055Z,376
2022-10-11T02:35:16.697Z,385
2022-10-11T02:36:15.990Z,392
2022-10-11T02:37:15.927Z,386
2022-10-11T02:38:16.381Z,384
2022-10-11T02:39:15.365Z,370
2022-10-11T02:40:15.348Z,381
2022-10-11T02:41:16.714Z,392
2022-10-11T02:42:16.242Z,382
2022-10-11T02:43:15.997Z,388
2022-10-11T02:44:15.634Z,383
2022-10-11T02:45:16.177Z,379
2022-10-11T02:46:17.573Z,389
2022-10-11T02:47:16.626Z,361
2022-10-11T02:48:16.236Z,378
2022-10-11T02:49:14.946Z,384
2022-10-11T02:50:16.467Z,382
2022-10-11T02:51:16.277Z,391
2022-10-11T02:52:16.081Z,392
2022-10-11T02:53:16.492Z,391
2022-10-11T02:55:15.387Z,392
2022-10-11T02:56:16.490Z,389
2022-10-11T02:57:15.968Z,393
2022-10-11T02:58:15.652Z,396
2022-10-11T03:00:16.002Z,398
2022-10-11T03:01:17.368Z,388
2022-10-11T03:02:16.559Z,390
2022-10-11T03:03:16.119Z,394
2022-10-11T03:04:15.845Z,388
2022-10-11T03:05:16.249Z,402
2022-10-11T03:06:15.730Z,405
2022-10-11T03:07:16.669Z,390
2022-10-11T03:08:16.365Z,392
2022-10-11T03:09:15.000Z,393
2022-10-11T03:10:16.635Z,400
2022-10-11T03:12:16.090Z,396
2022-10-11T03:13:22.688Z,391
2022-10-11T03:14:15.439Z,383
2022-10-11T03:15:16.147Z,389
2022-10-11T03:16:16.608Z,395
2022-10-11T03:17:38.747Z,408
2022-10-11T03:18:15.705Z,413
2022-10-11T03:19:19.129Z,408
2022-10-11T03:20:16.183Z,400
2022-10-11T03:21:16.646Z,407
2022-10-11T03:22:16.659Z,405
2022-10-11T03:23:16.237Z,407
2022-10-11T03:24:14.605Z,401
2022-10-11T03:25:16.632Z,398
2022-10-11T03:26:16.286Z,400
2022-10-11T03:27:16.142Z,396
2022-10-11T03:28:16.799Z,393
2022-10-11T03:29:15.235Z,394
2022-10-11T03:31:16.444Z,404
2022-10-11T03:32:16.201Z,406
2022-10-11T03:33:16.978Z,402
2022-10-11T03:34:15.209Z,396
2022-10-11T03:35:15.743Z,399
2022-10-11T03:36:16.853Z,392
2022-10-11T03:37:15.887Z,390
2022-10-11T03:38:17.762Z,398
2022-10-11T03:39:15.544Z,399
2022-10-11T03:40:16.226Z,391
2022-10-11T03:41:16.984Z,394
2022-10-11T03:42:16.582Z,382
2022-10-11T03:43:16.130Z,385
2022-10-11T03:44:15.545Z,390
2022-10-11T03:45:16.275Z,392
2022-10-11T03:46:16.140Z,397
2022-10-11T03:47:16.906Z,401
2022-10-11T03:48:16.244Z,398
2022-10-11T03:50:16.853Z,388
2022-10-11T03:51:20.868Z,395
2022-10-11T03:52:16.045Z,404
2022-10-11T03:54:15.085Z,401
2022-10-11T03:55:15.915Z,407
2022-10-11T03:56:17.282Z,404
2022-10-11T03:57:16.196Z,406
2022-10-11T03:58:15.825Z,408
2022-10-11T03:59:15.608Z,411
2022-10-11T04:00:15.988Z,422
2022-10-11T04:01:16.003Z,409
2022-10-11T04:02:16.729Z,398
2022-10-11T04:04:14.894Z,403
2022-10-11T04:05:16.413Z,407
2022-10-11T04:07:16.651Z,410
2022-10-11T04:08:17.236Z,403
2022-10-11T04:09:15.014Z,416
2022-10-11T04:11:16.096Z,398
2022-10-11T04:12:15.980Z,440
2022-10-11T04:13:16.621Z,425
2022-10-11T04:14:15.219Z,407
2022-10-11T04:15:15.749Z,412
2022-10-11T04:16:16.968Z,417
2022-10-11T04:17:16.032Z,415
2022-10-11T04:18:15.905Z,414
2022-10-11T04:19:15.479Z,418
2022-10-11T04:20:16.203Z,408
2022-10-11T04:21:16.770Z,411
2022-10-11T04:22:16.273Z,409
2022-10-11T04:23:16.045Z,416
2022-10-11T04:24:15.951Z,421
2022-10-11T04:25:16.708Z,420
2022-10-11T04:26:16.150Z,416
2022-10-11T04:27:16.872Z,412
2022-10-11T04:28:16.459Z,413
2022-10-11T04:29:15.232Z,409
2022-10-11T04:30:16.172Z,415
2022-10-11T04:31:16.479Z,411
2022-10-11T04:33:16.912Z,430
2022-10-11T04:34:14.941Z,408
2022-10-11T04:35:15.857Z,412
2022-10-11T04:36:18.056Z,405
2022-10-11T04:37:15.916Z,410
2022-10-11T04:38:16.515Z,408
2022-10-11T04:39:15.427Z,417
2022-10-11T04:40:15.938Z,418
2022-10-11T04:41:16.740Z,428
2022-10-11T04:42:16.367Z,427
2022-10-11T04:43:16.131Z,418
2022-10-11T04:44:15.320Z,401
2022-10-11T04:45:16.022Z,404
2022-10-11T04:46:16.390Z,405
2022-10-11T04:47:16.644Z,411
2022-10-11T04:48:16.356Z,412
2022-10-11T04:49:15.084Z,413
2022-10-11T04:50:16.437Z,407
2022-10-11T04:51:16.241Z,409
2022-10-11T04:52:16.023Z,402
2022-10-11T04:53:16.488Z,414
2022-10-11T04:54:15.226Z,417
2022-10-11T04:56:16.477Z,410
2022-10-11T04:57:16.350Z,421
2022-10-11T04:58:15.888Z,415
2022-10-11T04:59:15.538Z,405
2022-10-11T05:00:16.104Z,411
2022-10-11T05:02:16.795Z,417
2022-10-11T05:03:16.262Z,421
2022-10-11T05:04:15.634Z,416
2022-10-11T05:05:16.437Z,432
2022-10-11T05:06:16.235Z,443
2022-10-11T05:07:16.919Z,438
2022-10-11T05:08:16.161Z,427
2022-10-11T05:09:15.181Z,426
2022-10-11T05:10:16.525Z,433
2022-10-11T05:11:16.550Z,442
2022-10-11T05:12:15.821Z,441
2022-10-11T05:14:15.316Z,431
2022-10-11T05:15:15.891Z,417
2022-10-11T05:16:16.897Z,409
2022-10-11T05:17:16.346Z,450
2022-10-11T05:18:15.590Z,460
2022-10-11T05:19:15.875Z,420
2022-10-11T05:20:16.324Z,408
2022-10-11T05:21:15.763Z,418
2022-10-11T05:22:16.786Z,423
2022-10-11T05:23:16.350Z,407
2022-10-11T05:24:14.488Z,412
2022-10-11T05:25:16.478Z,421
2022-10-11T05:26:16.402Z,414
2022-10-11T05:27:15.726Z,420
2022-10-11T05:28:16.400Z,427
2022-10-11T05:29:15.306Z,429
2022-10-11T05:30:16.929Z,436
2022-10-11T05:31:16.373Z,438
2022-10-11T05:32:15.857Z,430
2022-10-11T05:33:17.123Z,413
2022-10-11T05:34:15.073Z,414
2022-10-11T05:35:16.083Z,423
2022-10-11T05:36:16.600Z,417
2022-10-11T05:37:16.751Z,420
2022-10-11T05:38:16.270Z,422
2022-10-11T05:39:15.690Z,419
2022-10-11T05:40:16.358Z,413
2022-10-11T05:41:16.233Z,421
2022-10-11T05:42:17.425Z,428
2022-10-11T05:43:16.443Z,432
2022-10-11T05:44:14.650Z,429
2022-10-11T05:45:16.347Z,423
2022-10-11T05:46:16.234Z,430
2022-10-11T05:47:16.069Z,435
2022-10-11T05:48:16.711Z,432
2022-10-11T05:49:15.250Z,441
2022-10-11T05:50:15.524Z,436
2022-10-11T05:51:16.664Z,433
2022-10-11T05:52:16.512Z,431
2022-10-11T05:53:15.703Z,439
2022-10-11T05:54:15.268Z,420
2022-10-11T05:55:16.086Z,430
2022-10-11T05:56:15.847Z,422
2022-10-11T05:57:16.413Z,418
2022-10-11T05:58:16.179Z,416
2022-10-11T05:59:14.847Z,423
2022-10-11T06:00:16.577Z,429
2022-10-11T06:01:16.316Z,437
2022-10-11T06:02:16.574Z,433
2022-10-11T06:03:16.118Z,425
2022-10-11T06:04:14.688Z,413
2022-10-11T06:05:16.694Z,430
2022-10-11T06:06:16.117Z,427
2022-10-11T06:07:15.965Z,422
2022-10-11T06:08:16.825Z,415
2022-10-11T06:09:15.655Z,420
2022-10-11T06:11:17.069Z,422
2022-10-11T06:12:16.327Z,425
2022-10-11T06:13:16.105Z,420
2022-10-11T06:14:15.076Z,423
2022-10-11T06:15:16.000Z,425
2022-10-11T06:16:16.945Z,420
2022-10-11T06:17:16.304Z,421
2022-10-11T06:18:15.803Z,413
2022-10-11T06:19:15.728Z,409
2022-10-11T06:20:16.271Z,407
2022-10-11T06:21:16.028Z,410
2022-10-11T06:22:16.704Z,406
2022-10-11T06:23:16.451Z,403
2022-10-11T06:24:15.047Z,410
2022-10-11T06:25:16.535Z,401
2022-10-11T06:27:15.869Z,399
2022-10-11T06:28:16.275Z,405
2022-10-11T06:30:15.387Z,406
2022-10-11T06:31:16.528Z,405
2022-10-11T06:33:16.210Z,410
2022-10-11T06:34:15.300Z,418
2022-10-11T06:35:16.033Z,409
2022-10-11T06:36:15.538Z,404
2022-10-11T06:37:16.118Z,399
2022-10-11T06:38:15.490Z,409
2022-10-11T06:39:15.651Z,414
2022-10-11T06:40:16.285Z,418
2022-10-11T06:42:16.281Z,409
2022-10-11T06:43:16.238Z,406
2022-10-11T06:44:17.873Z,402
2022-10-11T06:45:16.500Z,388
2022-10-11T06:46:16.260Z,422
2022-10-11T06:47:15.849Z,424
2022-10-11T06:48:16.818Z,404
2022-10-11T06:49:19.362Z,407
2022-10-11T06:50:16.192Z,409
2022-10-11T06:51:15.950Z,418
2022-10-11T06:52:15.986Z,429
2022-10-11T06:53:16.555Z,417
2022-10-11T06:54:15.296Z,415
2022-10-11T06:55:16.778Z,427
2022-10-11T06:56:16.495Z,421
2022-10-11T06:57:16.183Z,418
2022-10-11T06:58:16.915Z,424
2022-10-11T06:59:15.485Z,426
2022-10-11T07:00:17.934Z,423
2022-10-11T07:01:16.198Z,407
2022-10-11T07:02:16.284Z,402
2022-10-11T07:03:16.013Z,407
2022-10-11T07:04:15.326Z,416
2022-10-11T07:05:16.558Z,418
2022-10-11T07:06:15.891Z,422
2022-10-11T07:07:16.277Z,411
2022-10-11T07:08:15.817Z,414
2022-10-11T07:09:15.891Z,407
2022-10-11T07:11:15.885Z,408
2022-10-11T07:12:16.023Z,416
2022-10-11T07:13:21.867Z,426
2022-10-11T07:14:14.692Z,419
2022-10-11T07:15:16.588Z,418
2022-10-11T07:16:15.946Z,421
2022-10-11T07:17:15.993Z,430
2022-10-11T07:18:16.394Z,419
2022-10-11T07:19:15.052Z,422
2022-10-11T07:20:16.699Z,424
2022-10-11T07:21:16.165Z,412
2022-10-11T07:22:15.393Z,413
2022-10-11T07:23:16.531Z,406
2022-10-11T07:24:15.228Z,399
2022-10-11T07:25:16.703Z,411
2022-10-11T07:26:16.425Z,420
2022-10-11T07:27:15.961Z,427
2022-10-11T07:28:16.789Z,409
2022-10-11T07:29:15.462Z,427
2022-10-11T07:30:15.751Z,417
2022-10-11T07:31:16.626Z,396
2022-10-11T07:32:16.466Z,401
2022-10-11T07:33:15.974Z,408
2022-10-11T07:34:15.894Z,403
2022-10-11T07:35:16.224Z,411
2022-10-11T07:36:15.893Z,412
2022-10-11T07:37:16.559Z,408
2022-10-11T07:38:16.039Z,407
2022-10-11T07:39:15.333Z,402
2022-10-11T07:40:16.633Z,405
2022-10-11T07:41:16.109Z,407
2022-10-11T07:42:16.028Z,410
2022-10-11T07:43:16.405Z,403
2022-10-11T07:44:14.988Z,401
2022-10-11T07:47:16.236Z,394
2022-10-11T07:48:15.899Z,392
2022-10-11T07:49:15.700Z,389
2022-10-11T07:50:16.105Z,397
2022-10-11T07:51:16.568Z,384
2022-10-11T07:52:16.067Z,386
2022-10-11T07:53:16.224Z,379
2022-10-11T07:54:15.500Z,378
2022-10-11T07:55:15.986Z,381
2022-10-11T07:56:16.119Z,385
2022-10-11T07:57:16.795Z,381
2022-10-11T07:58:15.539Z,384
2022-10-11T07:59:15.896Z,374
2022-10-11T08:00:16.275Z,372
2022-10-11T08:01:15.994Z,367
2022-10-11T08:02:16.850Z,373
2022-10-11T08:04:15.183Z,367
2022-10-11T08:05:16.475Z,371
2022-10-11T08:06:16.150Z,376
2022-10-11T08:07:16.950Z,380
2022-10-11T08:08:16.316Z,379
2022-10-11T08:09:17.756Z,373
2022-10-11T08:10:16.811Z,369
2022-10-11T08:11:16.366Z,348
2022-10-11T08:12:16.153Z,368
2022-10-11T08:13:16.737Z,360
2022-10-11T08:14:15.331Z,358
2022-10-11T08:15:16.158Z,369
2022-10-11T08:16:16.358Z,365
2022-10-11T08:17:16.513Z,374
2022-10-11T08:18:16.293Z,384
2022-10-11T08:19:15.830Z,376
2022-10-11T08:20:16.171Z,373
2022-10-11T08:21:15.955Z,366
2022-10-11T08:22:16.952Z,368
2022-10-11T08:23:16.631Z,374
2022-10-11T08:24:15.139Z,377
2022-10-11T08:25:16.401Z,371
2022-10-11T08:26:16.232Z,370
2022-10-11T08:27:16.362Z,371
2022-10-11T08:29:15.446Z,363
2022-10-11T08:30:15.185Z,356
2022-10-11T08:31:16.629Z,364
2022-10-11T08:32:15.613Z,369
2022-10-11T08:33:15.888Z,363
2022-10-11T08:34:15.392Z,371
2022-10-11T08:35:16.214Z,373
2022-10-11T08:36:16.256Z,374
2022-10-11T08:37:16.359Z,368
2022-10-11T08:38:16.006Z,370
2022-10-11T08:39:15.690Z,367
2022-10-11T08:40:16.489Z,369
2022-10-11T08:41:15.737Z,370
2022-10-11T08:43:16.382Z,372
2022-10-11T08:44:15.074Z,378
2022-10-11T08:45:17.348Z,380
2022-10-11T08:46:15.781Z,382
2022-10-11T08:47:16.425Z,367
2022-10-11T08:48:16.196Z,372
2022-10-11T08:49:15.019Z,377
2022-10-11T08:50:16.584Z,388
2022-10-11T08:51:15.903Z,383
2022-10-11T08:52:15.913Z,380
2022-10-11T08:53:16.463Z,379
2022-10-11T08:54:15.327Z,377
2022-10-11T08:55:16.404Z,379
2022-10-11T08:56:16.223Z,378
2022-10-11T08:57:15.708Z,374
2022-10-11T08:58:16.804Z,368
2022-10-11T08:59:15.260Z,371
2022-10-11T09:00:16.031Z,370
2022-10-11T09:01:16.783Z,367
2022-10-11T09:02:15.651Z,383
2022-10-11T09:03:15.632Z,391
2022-10-11T09:04:15.380Z,387
2022-10-11T09:06:16.736Z,378
2022-10-11T09:07:16.478Z,372
2022-10-11T09:08:16.062Z,363
2022-10-11T09:09:15.880Z,380
2022-10-11T09:10:16.068Z,376
2022-10-11T09:11:16.144Z,348
2022-10-11T09:12:16.702Z,361
2022-10-11T09:13:16.635Z,365
2022-10-11T09:14:15.118Z,370
2022-10-11T09:15:16.549Z,374
2022-10-11T09:16:16.003Z,380
2022-10-11T09:17:16.136Z,373
2022-10-11T09:18:16.694Z,370
2022-10-11T09:19:15.459Z,373
2022-10-11T09:20:15.312Z,369
2022-10-11T09:21:16.217Z,368
2022-10-11T09:23:16.060Z,365
2022-10-11T09:24:15.227Z,380
2022-10-11T09:25:16.261Z,369
2022-10-11T09:26:15.667Z,362
2022-10-11T09:27:16.696Z,376
2022-10-11T09:28:16.210Z,388
2022-10-11T09:29:14.676Z,374
2022-10-11T09:30:16.159Z,376
2022-10-11T09:31:16.291Z,364
2022-10-11T09:32:15.641Z,358
2022-10-11T09:34:14.968Z,363
2022-10-11T09:35:20.074Z,349
2022-10-11T09:36:16.111Z,362
2022-10-11T09:37:15.821Z,356
2022-10-11T09:38:16.637Z,363
2022-10-11T09:39:15.495Z,365
2022-10-11T09:41:16.831Z,363
2022-10-11T09:42:16.099Z,376
2022-10-11T09:43:16.163Z,365
2022-10-11T09:45:16.169Z,373
2022-10-11T09:46:16.104Z,371
2022-10-11T09:47:16.436Z,360
2022-10-11T09:48:16.247Z,405
2022-10-11T09:49:15.136Z,391
2022-10-11T09:50:16.486Z,367
2022-10-11T09:51:16.546Z,363
2022-10-11T09:52:15.605Z,371
2022-10-11T09:53:16.517Z,367
2022-10-11T09:54:15.068Z,358
2022-10-11T09:55:19.613Z,364
2022-10-11T09:56:16.005Z,368
2022-10-11T09:57:16.001Z,372
2022-10-11T09:58:16.056Z,371
2022-10-11T09:59:15.446Z,365
2022-10-11T10:00:15.588Z,366
2022-10-11T10:02:16.071Z,372
2022-10-11T10:03:15.891Z,360
2022-10-11T10:04:15.394Z,351
2022-10-11T10:05:15.720Z,359
2022-10-11T10:06:16.466Z,360
2022-10-11T10:07:16.182Z,399
2022-10-11T10:08:15.960Z,373
2022-10-11T10:10:15.785Z,370
2022-10-11T10:11:16.244Z,366
2022-10-11T10:12:16.449Z,364
2022-10-11T10:13:15.853Z,354
2022-10-11T10:14:15.361Z,359
2022-10-11T10:15:16.093Z,372
2022-10-11T10:16:15.905Z,377
2022-10-11T10:17:16.895Z,372
2022-10-11T10:18:16.201Z,366
2022-10-11T10:19:14.915Z,357
2022-10-11T10:20:16.250Z,351
2022-10-11T10:21:15.851Z,345
2022-10-11T10:22:16.521Z,350
2022-10-11T10:23:16.209Z,344
2022-10-11T10:24:14.764Z,354
2022-10-11T10:25:16.431Z,367
2022-10-11T10:26:16.279Z,347
2022-10-11T10:27:16.188Z,352
2022-10-11T10:28:16.476Z,358
2022-10-11T10:29:15.239Z,368
2022-10-11T10:30:15.206Z,357
2022-10-11T10:31:16.418Z,352
2022-10-11T10:32:19.485Z,353
2022-10-11T10:33:15.742Z,362
2022-10-11T10:34:15.565Z,357
2022-10-11T10:35:16.069Z,361
2022-10-11T10:36:15.634Z,366
2022-10-11T10:37:16.504Z,363
2022-10-11T10:38:16.191Z,360
2022-10-11T10:39:15.933Z,355
2022-10-11T10:42:15.611Z,349
2022-10-11T10:43:16.479Z,341
2022-10-11T10:44:15.050Z,378
2022-10-11T10:45:22.010Z,333
2022-10-11T10:46:16.384Z,338
2022-10-11T10:47:16.128Z,344
2022-10-11T10:48:16.705Z,348
2022-10-11T10:49:54.047Z,346
2022-10-11T10:50:15.968Z,345
2022-10-11T10:51:16.304Z,351
2022-10-11T10:52:15.992Z,356
2022-10-11T10:53:15.889Z,345
2022-10-11T10:54:15.481Z,355
2022-10-11T10:55:15.965Z,364
2022-10-11T10:56:15.837Z,361
2022-10-11T10:57:16.508Z,349
2022-10-11T10:58:21.192Z,351
2022-10-11T10:59:14.996Z,349
2022-10-11T11:00:16.436Z,355
2022-10-11T11:01:15.849Z,365
2022-10-11T11:02:43.413Z,358
2022-10-11T11:03:16.611Z,352
2022-10-11T11:04:15.016Z,342
2022-10-11T11:05:15.920Z,336
2022-10-11T11:06:16.574Z,338
2022-10-11T11:07:16.279Z,339
2022-10-11T11:08:15.667Z,344
2022-10-11T11:09:15.704Z,340
2022-10-11T11:10:16.178Z,343
2022-10-11T11:12:16.585Z,339
2022-10-11T11:13:16.646Z,348
2022-10-11T11:14:15.556Z,344
2022-10-11T11:16:16.151Z,337
2022-10-11T11:17:16.814Z,346
2022-10-11T11:18:16.372Z,345
2022-10-11T11:19:15.079Z,350
2022-10-11T11:20:16.197Z,351
2022-10-11T11:21:16.445Z,336
2022-10-11T11:23:16.510Z,343
2022-10-11T11:24:14.933Z,348
2022-10-11T11:26:16.402Z,351
2022-10-11T11:27:16.461Z,345
2022-10-11T11:28:16.037Z,349
2022-10-11T11:30:15.613Z,352
2022-10-11T11:31:15.848Z,357
2022-10-11T11:32:16.293Z,361
2022-10-11T11:33:16.492Z,362
2022-10-11T11:34:15.046Z,354
2022-10-11T11:35:16.757Z,361
2022-10-11T11:36:16.150Z,363
2022-10-11T11:37:15.635Z,355
2022-10-11T11:38:16.759Z,351
2022-10-11T11:39:15.362Z,342
2022-10-11T11:40:15.683Z,344
2022-10-11T11:41:16.462Z,345
2022-10-11T11:42:15.754Z,357
2022-10-11T11:43:15.887Z,360
2022-10-11T11:44:15.313Z,344
2022-10-11T11:45:15.929Z,349
2022-10-11T11:46:15.581Z,350
2022-10-11T11:47:16.501Z,349
2022-10-11T11:49:16.945Z,344
2022-10-11T11:50:15.950Z,337
2022-10-11T11:51:16.769Z,346
2022-10-11T11:52:16.265Z,341
2022-10-11T11:53:16.321Z,339
2022-10-11T11:54:14.953Z,348
2022-10-11T11:55:16.393Z,343
2022-10-11T11:56:16.386Z,337
2022-10-11T11:57:16.465Z,352
2022-10-11T11:58:16.252Z,353
2022-10-11T11:59:15.993Z,358
2022-10-11T12:00:16.510Z,356
2022-10-11T12:01:16.161Z,347
2022-10-11T12:02:15.883Z,340
2022-10-11T12:03:16.523Z,339
2022-10-11T12:04:15.342Z,341
2022-10-11T12:05:16.715Z,342
2022-10-11T12:06:16.243Z,344
2022-10-11T12:07:21.291Z,332
2022-10-11T12:08:16.494Z,340
2022-10-11T12:09:15.634Z,345
2022-10-11T12:10:15.876Z,351
2022-10-11T12:11:16.866Z,347
2022-10-11T12:12:16.438Z,356
2022-10-11T12:13:15.863Z,354
2022-10-11T12:14:15.710Z,347
2022-10-11T12:15:16.151Z,340
2022-10-11T12:16:15.560Z,332
2022-10-11T12:17:16.641Z,341
2022-10-11T12:18:16.230Z,353
2022-10-11T12:19:15.137Z,347
2022-10-11T12:20:20.757Z,356
2022-10-11T12:21:16.229Z,339
2022-10-11T12:22:16.224Z,342
2022-10-11T12:23:19.728Z,354
2022-10-11T12:25:21.101Z,348
2022-10-11T12:27:16.367Z,350
2022-10-11T12:28:16.058Z,341
2022-10-11T12:29:15.623Z,342
2022-10-11T12:30:16.210Z,341
2022-10-11T12:31:15.790Z,335
2022-10-11T12:32:16.707Z,340
2022-10-11T12:33:16.212Z,338
2022-10-11T12:34:14.796Z,333
2022-10-11T12:35:16.293Z,338
2022-10-11T12:36:15.980Z,345
2022-10-11T12:37:16.628Z,355
2022-10-11T12:38:15.879Z,338
2022-10-11T12:39:15.234Z,344
2022-10-11T12:40:16.461Z,340
2022-10-11T12:41:16.329Z,329
2022-10-11T12:42:16.142Z,336
2022-10-11T12:43:16.719Z,338
2022-10-11T12:44:15.041Z,343
2022-10-11T12:45:15.797Z,349
2022-10-11T12:46:16.028Z,337
2022-10-11T12:47:16.201Z,328
2022-10-11T12:48:15.949Z,337
2022-10-11T12:49:15.768Z,342
2022-10-11T12:50:15.584Z,338
2022-10-11T12:51:15.858Z,337
2022-10-11T12:52:16.147Z,333
2022-10-11T12:53:16.341Z,332
2022-10-11T12:54:34.622Z,335
2022-10-11T12:55:16.707Z,333
2022-10-11T12:56:15.905Z,331
2022-10-11T12:57:17.456Z,327
2022-10-11T12:58:16.301Z,335
2022-10-11T12:59:15.346Z,353
2022-10-11T13:00:15.684Z,350
2022-10-11T13:01:16.853Z,348
2022-10-11T13:02:16.090Z,341
2022-10-11T13:04:15.229Z,342
2022-10-11T13:05:16.325Z,344
2022-10-11T13:06:16.553Z,345
2022-10-11T13:07:16.270Z,341
2022-10-11T13:08:15.578Z,340
2022-10-11T13:09:15.273Z,343
2022-10-11T13:10:15.717Z,355
2022-10-11T13:11:16.890Z,364
2022-10-11T13:12:16.252Z,358
2022-10-11T13:13:16.228Z,345
2022-10-11T13:14:15.721Z,348
2022-10-11T13:15:16.276Z,345
2022-10-11T13:16:15.790Z,342
2022-10-11T13:17:16.554Z,349
2022-10-11T13:18:16.320Z,352
2022-10-11T13:19:15.841Z,355
2022-10-11T13:20:16.557Z,351
2022-10-11T13:21:19.086Z,346
2022-10-11T13:22:16.459Z,330
2022-10-11T13:23:16.134Z,381
2022-10-11T13:24:14.823Z,360
2022-10-11T13:25:16.606Z,347
2022-10-11T13:26:16.198Z,335
2022-10-11T13:27:15.962Z,328
2022-10-11T13:28:16.385Z,341
2022-10-11T13:30:16.665Z,337
2022-10-11T13:31:19.393Z,342
2022-10-11T13:32:16.003Z,343
2022-10-11T13:33:16.562Z,338
2022-10-11T13:34:17.604Z,346
2022-10-11T13:35:17.062Z,344
2022-10-11T13:36:15.345Z,342
2022-10-11T13:37:16.261Z,344
2022-10-11T13:38:16.005Z,347
2022-10-11T13:39:15.757Z,343
2022-10-11T13:40:15.674Z,331
2022-10-11T13:41:16.064Z,367
2022-10-11T13:42:16.137Z,338
2022-10-11T13:43:16.649Z,333
2022-10-11T13:44:14.616Z,346
2022-10-11T13:45:16.586Z,335
2022-10-11T13:46:16.078Z,341
2022-10-11T13:47:16.708Z,337
2022-10-11T13:48:16.354Z,335
2022-10-11T13:49:15.093Z,338
2022-10-11T13:50:16.624Z,345
2022-10-11T13:51:16.464Z,343
2022-10-11T13:52:15.913Z,346
2022-10-11T13:53:16.465Z,347
2022-10-11T13:56:15.855Z,340
2022-10-11T13:57:16.183Z,332
2022-10-11T13:59:15.687Z,344
2022-10-11T14:00:15.788Z,342
2022-10-11T14:01:16.271Z,350
2022-10-11T14:02:16.383Z,348
2022-10-11T14:03:16.027Z,337
2022-10-11T14:04:14.897Z,335
2022-10-11T14:05:16.176Z,340
2022-10-11T14:06:16.170Z,337
2022-10-11T14:07:16.854Z,349
2022-10-11T14:08:16.422Z,351
2022-10-11T14:09:15.291Z,348
2022-10-11T14:10:16.515Z,341
2022-10-11T14:11:16.169Z,342
2022-10-11T14:12:15.690Z,349
2022-10-11T14:13:16.607Z,351
2022-10-11T14:14:15.386Z,353
2022-10-11T14:15:15.899Z,344
2022-10-11T14:16:16.171Z,350
2022-10-11T14:17:16.554Z,351
2022-10-11T14:18:15.681Z,342
2022-10-11T14:19:15.813Z,341
2022-10-11T14:20:16.141Z,328
2022-10-11T14:21:16.312Z,335
2022-10-11T14:22:16.357Z,336
2022-10-11T14:23:16.227Z,344
2022-10-11T14:24:14.855Z,341
2022-10-11T14:25:16.557Z,338
2022-10-11T14:26:22.116Z,347
2022-10-11T14:27:15.677Z,343
2022-10-11T14:28:16.373Z,332
2022-10-11T14:29:15.434Z,335
2022-10-11T14:30:29.374Z,341
2022-10-11T14:31:16.515Z,337
2022-10-11T14:32:16.456Z,348
2022-10-11T14:33:15.688Z,351
2022-10-11T14:34:16.492Z,343
2022-10-11T14:35:16.143Z,354
2022-10-11T14:36:15.154Z,356
2022-10-11T14:37:16.718Z,346
2022-10-11T14:38:16.129Z,348
2022-10-11T14:39:15.874Z,352
2022-10-11T14:41:16.181Z,332
2022-10-11T14:42:24.112Z,336
2022-10-11T14:43:16.394Z,346
2022-10-11T14:44:15.037Z,338